createdAt,value
2023-04-09T00:00:23.196Z,20.5
2023-04-09T00:02:22.827Z,20.3
2023-04-09T00:04:22.725Z,20.1
2023-04-09T00:06:22.725Z,20.1
2023-04-09T00:08:22.814Z,20.0
2023-04-09T00:10:22.794Z,19.9
2023-04-09T00:12:25.345Z,20.0
2023-04-09T00:14:22.796Z,19.9
2023-04-09T00:16:23.044Z,19.9
2023-04-09T00:18:22.799Z,19.7
2023-04-09T00:20:22.851Z,19.9
2023-04-09T00:22:22.728Z,19.8
2023-04-09T00:24:23.236Z,19.8
2023-04-09T00:26:22.774Z,19.8
2023-04-09T00:28:22.770Z,19.6
2023-04-09T00:30:22.789Z,19.6
2023-04-09T00:32:22.753Z,19.6
2023-04-09T00:34:22.772Z,19.4
2023-04-09T00:36:24.109Z,19.1
2023-04-09T00:38:22.789Z,19.3
2023-04-09T00:40:22.854Z,19.3
2023-04-09T00:42:22.748Z,19.8
2023-04-09T00:44:22.781Z,19.5
2023-04-09T00:46:22.757Z,19.5
2023-04-09T00:48:22.923Z,19.4
2023-04-09T00:50:34.900Z,19.4
2023-04-09T00:52:22.820Z,19.1
2023-04-09T00:54:22.781Z,19.0
2023-04-09T00:56:22.857Z,18.9
2023-04-09T00:58:22.746Z,18.8
2023-04-09T01:00:28.539Z,19.0
2023-04-09T01:02:22.921Z,19.2
2023-04-09T01:04:22.867Z,19.4
2023-04-09T01:06:22.832Z,19.4
2023-04-09T01:08:22.758Z,19.4
2023-04-09T01:10:24.660Z,19.4
2023-04-09T01:12:22.757Z,19.3
2023-04-09T01:14:22.804Z,19.1
2023-04-09T01:16:25.127Z,19.6
2023-04-09T01:18:22.889Z,19.9
2023-04-09T01:20:23.094Z,19.8
2023-04-09T01:22:22.826Z,19.9
2023-04-09T01:24:22.901Z,19.7
2023-04-09T01:26:22.861Z,20.0
2023-04-09T01:28:22.759Z,20.1
2023-04-09T01:30:22.858Z,20.2
2023-04-09T01:32:27.727Z,20.2
2023-04-09T01:34:22.817Z,20.2
2023-04-09T01:36:22.812Z,20.4
2023-04-09T01:38:22.740Z,20.6
2023-04-09T01:40:22.805Z,20.7
2023-04-09T01:42:22.763Z,20.4
2023-04-09T01:44:22.854Z,20.2
2023-04-09T01:46:22.942Z,20.2
2023-04-09T01:48:22.779Z,20.4
2023-04-09T01:50:22.825Z,20.2
2023-04-09T01:52:22.782Z,20.5
2023-04-09T01:54:22.834Z,20.6
2023-04-09T01:56:22.963Z,20.5
2023-04-09T01:58:22.959Z,20.7
2023-04-09T02:00:22.892Z,20.5
2023-04-09T02:02:24.009Z,20.8
2023-04-09T02:04:22.806Z,20.6
2023-04-09T02:06:22.821Z,20.7
2023-04-09T02:08:22.960Z,20.8
2023-04-09T02:10:22.852Z,20.9
2023-04-09T02:12:22.839Z,20.8
2023-04-09T02:14:24.050Z,20.9
2023-04-09T02:17:22.902Z,20.3
2023-04-09T02:19:22.885Z,20.2
2023-04-09T02:21:22.802Z,20.5
2023-04-09T02:24:44.936Z,20.8
2023-04-09T02:26:44.863Z,20.8
2023-04-09T02:28:44.777Z,20.6
2023-04-09T02:30:44.861Z,20.6
2023-04-09T02:32:44.834Z,20.5
2023-04-09T02:34:44.796Z,20.5
2023-04-09T02:36:44.939Z,20.6
2023-04-09T02:38:44.905Z,20.5
2023-04-09T02:40:48.485Z,20.4
2023-04-09T02:42:44.760Z,20.4
2023-04-09T02:44:44.795Z,20.8
2023-04-09T02:46:44.864Z,20.9
2023-04-09T02:48:44.800Z,20.9
2023-04-09T02:50:44.770Z,20.9
2023-04-09T02:52:44.818Z,20.8
2023-04-09T02:54:44.797Z,20.8
2023-04-09T02:56:44.885Z,21.0
2023-04-09T02:58:45.761Z,20.8
2023-04-09T03:00:44.979Z,20.9
2023-04-09T03:02:44.914Z,20.5
2023-04-09T03:04:44.825Z,20.4
2023-04-09T03:06:46.783Z,20.1
2023-04-09T03:08:44.998Z,19.8
2023-04-09T03:10:44.880Z,19.8
2023-04-09T03:12:44.869Z,19.7
2023-04-09T03:14:44.856Z,19.6
2023-04-09T03:16:49.703Z,19.6
2023-04-09T03:18:44.831Z,19.8
2023-04-09T03:20:44.783Z,19.6
2023-04-09T03:22:44.812Z,19.9
2023-04-09T03:24:44.826Z,19.3
2023-04-09T03:26:44.830Z,19.0
2023-04-09T03:28:44.907Z,19.2
2023-04-09T03:30:44.904Z,19.0
2023-04-09T03:32:44.880Z,19.2
2023-04-09T03:34:44.889Z,19.5
2023-04-09T03:36:44.934Z,19.5
2023-04-09T03:39:44.878Z,19.5
2023-04-09T03:41:44.871Z,19.4
2023-04-09T03:43:44.854Z,19.3
2023-04-09T03:44:49.714Z,19.5
2023-04-09T03:47:44.899Z,19.3
2023-04-09T03:49:44.942Z,19.3
2023-04-09T03:51:44.913Z,19.4
2023-04-09T03:53:44.909Z,19.5
2023-04-09T03:55:44.868Z,19.5
2023-04-09T03:57:44.805Z,19.5
2023-04-09T03:59:44.866Z,19.8
2023-04-09T04:01:44.926Z,19.5
2023-04-09T04:03:45.016Z,19.5
2023-04-09T04:05:44.857Z,19.6
2023-04-09T04:07:44.884Z,19.7
2023-04-09T04:09:45.253Z,19.7
2023-04-09T04:11:44.969Z,19.8
2023-04-09T04:13:44.832Z,20.1
2023-04-09T04:15:44.893Z,20.1
2023-04-09T04:17:44.981Z,19.9
2023-04-09T04:19:44.912Z,19.9
2023-04-09T04:21:44.917Z,20.0
2023-04-09T04:23:44.871Z,20.2
2023-04-09T04:25:44.888Z,20.2
2023-04-09T04:27:44.891Z,20.1
2023-04-09T04:29:44.849Z,20.1
2023-04-09T04:31:44.982Z,20.2
2023-04-09T04:33:46.328Z,19.8
2023-04-09T04:35:44.941Z,19.6
2023-04-09T04:37:45.009Z,19.6
2023-04-09T04:39:44.881Z,19.6
2023-04-09T04:41:48.323Z,19.5
2023-04-09T04:43:44.897Z,19.3
2023-04-09T04:45:44.954Z,19.3
2023-04-09T04:47:45.106Z,19.1
2023-04-09T04:49:44.849Z,19.3
2023-04-09T04:51:44.864Z,19.3
2023-04-09T04:53:45.002Z,19.1
2023-04-09T04:55:46.723Z,19.2
2023-04-09T04:57:44.890Z,19.4
2023-04-09T04:59:44.891Z,19.4
2023-04-09T05:01:44.920Z,19.6
2023-04-09T05:03:45.132Z,19.7
2023-04-09T05:05:44.916Z,19.8
2023-04-09T05:07:44.945Z,20.0
2023-04-09T05:09:44.913Z,20.0
2023-04-09T05:11:45.006Z,20.0
2023-04-09T05:13:45.144Z,20.1
2023-04-09T05:15:44.919Z,20.0
2023-04-09T05:17:44.936Z,20.1
2023-04-09T05:19:44.927Z,20.2
2023-04-09T05:21:49.811Z,20.3
2023-04-09T05:23:44.870Z,20.0
2023-04-09T05:25:44.904Z,20.2
2023-04-09T05:27:44.952Z,20.4
2023-04-09T05:29:44.898Z,20.4
2023-04-09T05:31:49.766Z,20.4
2023-04-09T05:33:45.221Z,20.6
2023-04-09T05:35:44.984Z,20.6
2023-04-09T05:37:47.185Z,20.8
2023-04-09T05:39:44.965Z,21.4
2023-04-09T05:41:45.025Z,21.3
2023-04-09T05:43:44.968Z,21.9
2023-04-09T05:45:45.514Z,22.1
2023-04-09T05:47:44.926Z,22.4
2023-04-09T05:49:44.943Z,22.5
2023-04-09T05:51:44.992Z,22.4
2023-04-09T05:53:44.918Z,22.6
2023-04-09T05:55:44.923Z,22.7
2023-04-09T05:57:46.186Z,22.7
2023-04-09T05:59:44.890Z,22.7
2023-04-09T06:01:44.930Z,23.0
2023-04-09T06:03:44.999Z,22.7
2023-04-09T06:05:44.896Z,22.4
2023-04-09T06:07:45.088Z,22.3
2023-04-09T06:09:44.929Z,22.3
2023-04-09T06:11:44.978Z,22.4
2023-04-09T06:13:44.972Z,22.3
2023-04-09T06:15:45.108Z,22.3
2023-04-09T06:17:44.952Z,22.4
2023-04-09T06:19:45.802Z,22.3
2023-04-09T06:21:44.933Z,22.2
2023-04-09T06:23:44.902Z,22.4
2023-04-09T06:25:44.977Z,22.2
2023-04-09T06:27:44.919Z,22.2
2023-04-09T06:29:44.981Z,22.0
2023-04-09T06:31:45.103Z,22.1
2023-04-09T06:33:45.171Z,22.1
2023-04-09T06:35:45.022Z,22.0
2023-04-09T06:37:45.059Z,21.6
2023-04-09T06:39:54.207Z,21.0
2023-04-09T06:41:45.216Z,21.0
2023-04-09T06:43:44.940Z,20.9
2023-04-09T06:45:45.230Z,20.7
2023-04-09T06:47:45.211Z,20.4
2023-04-09T06:49:45.272Z,20.4
2023-04-09T06:51:45.033Z,20.4
2023-04-09T06:53:45.128Z,20.6
2023-04-09T06:55:44.902Z,20.6
2023-04-09T06:57:44.925Z,20.4
2023-04-09T06:59:44.967Z,20.4
2023-04-09T07:01:45.065Z,20.1
2023-04-09T07:03:45.072Z,20.3
2023-04-09T07:05:47.852Z,20.6
2023-04-09T07:07:45.200Z,20.5
2023-04-09T07:09:49.805Z,20.3
2023-04-09T07:11:44.946Z,20.2
2023-04-09T07:13:45.145Z,20.2
2023-04-09T07:15:46.278Z,20.0
2023-04-09T07:17:45.116Z,20.3
2023-04-09T07:20:44.981Z,20.2
2023-04-09T07:22:44.987Z,20.1
2023-04-09T07:24:44.965Z,20.1
2023-04-09T07:26:46.265Z,20.3
2023-04-09T07:28:45.181Z,20.3
2023-04-09T07:30:44.939Z,20.2
2023-04-09T07:32:44.989Z,20.5
2023-04-09T07:34:49.295Z,20.5
2023-04-09T07:36:44.924Z,20.6
2023-04-09T07:38:44.911Z,20.9
2023-04-09T07:40:44.919Z,20.9
2023-04-09T07:42:45.017Z,20.9
2023-04-09T07:44:46.389Z,20.9
2023-04-09T07:46:45.017Z,20.7
2023-04-09T07:48:46.694Z,20.6
2023-04-09T07:50:44.946Z,20.6
2023-04-09T07:52:44.987Z,20.5
2023-04-09T07:54:44.985Z,20.2
2023-04-09T07:56:45.036Z,20.2
2023-04-09T07:58:44.978Z,20.1
2023-04-09T08:00:45.249Z,20.2
2023-04-09T08:02:45.221Z,20.7
2023-04-09T08:04:45.064Z,20.5
2023-04-09T08:06:45.089Z,20.7
2023-04-09T08:08:47.444Z,20.7
2023-04-09T08:10:45.055Z,21.0
2023-04-09T08:12:45.033Z,21.0
2023-04-09T08:14:45.432Z,21.3
2023-04-09T08:16:45.083Z,21.1
2023-04-09T08:18:45.014Z,20.9
2023-04-09T08:20:45.388Z,21.0
2023-04-09T08:22:45.452Z,21.1
2023-04-09T08:24:45.123Z,21.1
2023-04-09T08:26:45.051Z,21.1
2023-04-09T08:30:45.225Z,21.3
2023-04-09T08:32:45.203Z,21.2
2023-04-09T08:34:50.070Z,21.1
2023-04-09T08:36:45.056Z,20.9
2023-04-09T08:41:00.026Z,21.1
2023-04-09T08:42:59.527Z,21.0
2023-04-09T08:44:59.715Z,21.0
2023-04-09T08:46:59.763Z,21.1
2023-04-09T08:48:59.516Z,21.1
2023-04-09T08:50:59.560Z,21.0
2023-04-09T08:52:59.398Z,21.1
2023-04-09T08:54:59.498Z,21.0
2023-04-09T08:56:59.502Z,21.2
2023-04-09T08:58:59.827Z,21.2
2023-04-09T09:01:04.274Z,20.8
2023-04-09T09:02:59.788Z,20.7
2023-04-09T09:04:59.519Z,21.0
2023-04-09T09:06:59.456Z,20.8
2023-04-09T09:08:59.497Z,20.7
2023-04-09T09:10:59.533Z,20.6
2023-04-09T09:12:59.611Z,20.9
2023-04-09T09:14:59.441Z,20.6
2023-04-09T09:16:59.634Z,20.8
2023-04-09T09:18:59.788Z,20.6
2023-04-09T09:20:59.567Z,20.7
2023-04-09T09:22:59.481Z,20.8
2023-04-09T09:24:59.590Z,20.9
2023-04-09T09:26:59.520Z,20.9
2023-04-09T09:28:59.485Z,21.2
2023-04-09T09:31:03.013Z,21.0
2023-04-09T09:32:59.797Z,20.8
2023-04-09T09:34:59.546Z,20.8
2023-04-09T09:36:59.595Z,21.0
2023-04-09T09:38:59.487Z,21.1
2023-04-09T09:40:59.657Z,21.4
2023-04-09T09:42:59.456Z,21.5
2023-04-09T09:44:59.519Z,21.5
2023-04-09T09:47:01.445Z,21.5
2023-04-09T09:48:59.605Z,21.8
2023-04-09T09:51:04.402Z,21.7
2023-04-09T09:52:59.551Z,21.7
2023-04-09T09:54:59.579Z,21.8
2023-04-09T09:56:59.712Z,21.8
2023-04-09T09:58:59.664Z,21.8
2023-04-09T10:00:59.711Z,21.7
2023-04-09T10:02:59.658Z,21.7
2023-04-09T10:04:59.707Z,21.5
2023-04-09T10:06:59.508Z,21.5
2023-04-09T10:09:00.807Z,21.5
2023-04-09T10:11:02.103Z,21.5
2023-04-09T10:12:59.601Z,21.3
2023-04-09T10:14:59.522Z,21.3
2023-04-09T10:16:59.544Z,21.2
2023-04-09T10:18:59.573Z,21.3
2023-04-09T10:20:59.722Z,21.1
2023-04-09T10:22:59.490Z,20.9
2023-04-09T10:24:59.564Z,20.5
2023-04-09T10:26:59.634Z,20.6
2023-04-09T10:28:59.792Z,20.3
2023-04-09T10:31:05.397Z,20.2
2023-04-09T10:32:59.612Z,20.0
2023-04-09T10:34:59.579Z,20.1
2023-04-09T10:36:59.645Z,19.8
2023-04-09T10:38:59.524Z,20.0
2023-04-09T10:40:59.567Z,20.0
2023-04-09T10:42:59.713Z,19.9
2023-04-09T10:44:59.586Z,19.8
2023-04-09T10:46:59.869Z,19.6
2023-04-09T10:49:04.501Z,19.5
2023-04-09T10:50:59.848Z,19.4
2023-04-09T10:52:59.630Z,19.4
2023-04-09T10:54:59.637Z,19.3
2023-04-09T10:56:59.780Z,19.2
2023-04-09T10:59:00.332Z,19.3
2023-04-09T11:00:59.573Z,19.4
2023-04-09T11:02:59.890Z,19.5
2023-04-09T11:04:59.765Z,19.4
2023-04-09T11:06:59.539Z,19.4
2023-04-09T11:08:59.741Z,19.4
2023-04-09T11:11:00.231Z,19.5
2023-04-09T11:12:59.830Z,19.5
2023-04-09T11:15:00.558Z,19.7
2023-04-09T11:16:59.559Z,19.8
2023-04-09T11:18:59.833Z,19.8
2023-04-09T11:20:59.574Z,20.2
2023-04-09T11:22:59.656Z,20.4
2023-04-09T11:24:59.589Z,20.6
2023-04-09T11:27:00.022Z,20.5
2023-04-09T11:28:59.661Z,20.4
2023-04-09T11:30:59.599Z,20.4
2023-04-09T11:32:59.804Z,20.7
2023-04-09T11:34:59.613Z,20.9
2023-04-09T11:36:59.554Z,20.8
2023-04-09T11:38:59.610Z,20.6
2023-04-09T11:40:59.571Z,20.5
2023-04-09T11:43:00.149Z,20.6
2023-04-09T11:44:59.636Z,20.9
2023-04-09T11:46:59.629Z,20.8
2023-04-09T11:48:59.635Z,20.8
2023-04-09T11:50:59.701Z,21.0
2023-04-09T11:53:02.979Z,21.0
2023-04-09T11:54:59.600Z,21.3
2023-04-09T11:56:59.585Z,21.3
2023-04-09T11:58:59.626Z,21.3
2023-04-09T12:00:59.978Z,21.1
2023-04-09T12:03:01.156Z,21.0
2023-04-09T12:04:59.908Z,21.0
2023-04-09T12:06:59.783Z,21.3
2023-04-09T12:09:59.617Z,21.0
2023-04-09T12:11:59.575Z,20.8
2023-04-09T12:14:02.393Z,20.5
2023-04-09T12:16:03.501Z,20.7
2023-04-09T12:17:59.794Z,20.4
2023-04-09T12:19:59.787Z,20.2
2023-04-09T12:21:59.637Z,20.2
2023-04-09T12:23:59.628Z,20.1
2023-04-09T12:25:59.709Z,20.0
2023-04-09T12:27:59.686Z,20.0
2023-04-09T12:29:59.630Z,19.8
2023-04-09T12:31:59.829Z,19.6
2023-04-09T12:33:59.661Z,19.3
2023-04-09T12:35:59.650Z,19.6
2023-04-09T12:37:59.828Z,19.9
2023-04-09T12:39:59.635Z,19.8
2023-04-09T12:42:02.812Z,19.8
2023-04-09T12:43:59.778Z,19.9
2023-04-09T12:46:04.167Z,19.9
2023-04-09T12:47:59.702Z,19.8
2023-04-09T12:49:59.831Z,20.0
2023-04-09T12:52:00.009Z,20.3
2023-04-09T12:53:59.822Z,20.0
2023-04-09T12:56:03.212Z,20.1
2023-04-09T12:57:59.741Z,20.1
2023-04-09T13:00:00.212Z,20.1
2023-04-09T13:02:00.019Z,20.2
2023-04-09T13:03:59.736Z,20.5
2023-04-09T13:05:59.664Z,20.6
2023-04-09T13:07:59.938Z,20.8
2023-04-09T13:10:00.680Z,21.2
2023-04-09T13:11:59.681Z,21.3
2023-04-09T13:13:59.971Z,21.3
2023-04-09T13:15:59.996Z,21.4
2023-04-09T13:17:59.799Z,21.5
2023-04-09T13:19:59.705Z,21.5
2023-04-09T13:22:00.055Z,21.2
2023-04-09T13:23:59.666Z,21.2
2023-04-09T13:25:59.832Z,21.6
2023-04-09T13:27:59.803Z,21.7
2023-04-09T13:30:00.520Z,21.9
2023-04-09T13:31:59.848Z,21.9
2023-04-09T13:33:59.797Z,22.0
2023-04-09T13:35:59.823Z,21.9
2023-04-09T13:37:59.711Z,21.6
2023-04-09T13:40:00.816Z,21.5
2023-04-09T13:41:59.745Z,21.3
2023-04-09T13:44:00.187Z,21.2
2023-04-09T13:45:59.853Z,21.1
2023-04-09T13:47:59.846Z,21.2
2023-04-09T13:49:59.800Z,20.8
2023-04-09T13:51:59.889Z,20.6
2023-04-09T13:53:59.683Z,20.4
2023-04-09T13:56:08.973Z,20.2
2023-04-09T13:57:59.729Z,19.9
2023-04-09T13:59:59.804Z,19.9
2023-04-09T14:02:04.829Z,19.9
2023-04-09T14:03:59.929Z,19.4
2023-04-09T14:06:03.033Z,19.4
2023-04-09T14:07:59.856Z,19.1
2023-04-09T14:09:59.854Z,18.9
2023-04-09T14:11:59.983Z,19.1
2023-04-09T14:13:59.869Z,19.3
2023-04-09T14:16:00.659Z,19.0
2023-04-09T14:17:59.854Z,19.1
2023-04-09T14:19:59.707Z,19.3
2023-04-09T14:22:00.171Z,19.6
2023-04-09T14:24:03.389Z,19.6
2023-04-09T14:26:01.182Z,19.5
2023-04-09T14:27:59.740Z,19.2
2023-04-09T14:30:00.315Z,19.2
2023-04-09T14:31:59.752Z,19.0
2023-04-09T14:33:59.811Z,19.4
2023-04-09T14:35:59.720Z,19.4
2023-04-09T14:40:08.412Z,19.3
2023-04-09T14:42:08.241Z,19.6
2023-04-09T14:44:08.338Z,19.4
2023-04-09T14:46:14.482Z,19.4
2023-04-09T14:48:08.313Z,19.6
2023-04-09T14:50:14.432Z,20.0
2023-04-09T14:52:08.476Z,20.0
2023-04-09T14:54:09.342Z,20.3
2023-04-09T14:56:08.334Z,20.1
2023-04-09T14:58:08.335Z,20.5
2023-04-09T15:00:08.464Z,20.6
2023-04-09T15:02:08.590Z,20.5
2023-04-09T15:04:08.776Z,20.5
2023-04-09T15:06:08.344Z,20.4
2023-04-09T15:08:08.346Z,20.3
2023-04-09T15:10:08.426Z,20.4
2023-04-09T15:12:08.411Z,20.2
2023-04-09T15:14:08.632Z,20.4
2023-04-09T15:16:08.432Z,20.6
2023-04-09T15:18:08.427Z,20.3
2023-04-09T15:20:08.526Z,20.1
2023-04-09T15:22:08.423Z,19.8
2023-04-09T15:24:08.611Z,19.8
2023-04-09T15:26:08.309Z,19.7
2023-04-09T15:28:08.348Z,20.1
2023-04-09T15:30:08.630Z,20.2
2023-04-09T15:32:08.365Z,20.3
2023-04-09T15:34:08.491Z,19.9
2023-04-09T15:36:13.245Z,19.9
2023-04-09T15:38:08.530Z,19.9
2023-04-09T15:40:08.867Z,19.9
2023-04-09T15:42:10.264Z,19.7
2023-04-09T15:44:08.368Z,20.2
2023-04-09T15:46:08.359Z,20.3
2023-04-09T15:48:08.510Z,20.0
2023-04-09T15:50:08.384Z,19.9
2023-04-09T15:52:13.331Z,19.8
2023-04-09T15:54:08.418Z,19.8
2023-04-09T15:56:12.012Z,19.9
2023-04-09T15:58:08.464Z,20.1
2023-04-09T16:00:08.406Z,20.3
2023-04-09T16:02:08.508Z,20.4
2023-04-09T16:04:14.692Z,20.6
2023-04-09T16:06:08.400Z,20.7
2023-04-09T16:08:08.393Z,20.9
2023-04-09T16:10:08.539Z,20.9
2023-04-09T16:12:08.411Z,20.6
2023-04-09T16:14:08.318Z,20.3
2023-04-09T16:16:10.096Z,20.6
2023-04-09T16:18:08.402Z,20.7
2023-04-09T16:20:08.426Z,20.7
2023-04-09T16:22:08.531Z,20.8
2023-04-09T16:24:08.504Z,20.6
2023-04-09T16:26:08.409Z,20.7
2023-04-09T16:28:08.538Z,20.5
2023-04-09T16:30:08.396Z,20.3
2023-04-09T16:32:09.053Z,20.4
2023-04-09T16:34:08.361Z,20.4
2023-04-09T16:36:08.399Z,20.4
2023-04-09T16:38:08.445Z,20.5
2023-04-09T16:40:08.680Z,20.4
2023-04-09T16:42:08.535Z,20.5
2023-04-09T16:44:08.797Z,20.2
2023-04-09T16:46:08.669Z,20.2
2023-04-09T16:49:08.517Z,20.3
2023-04-09T16:51:08.753Z,20.3
2023-04-09T16:53:08.472Z,20.4
2023-04-09T16:55:08.500Z,20.2
2023-04-09T16:57:08.383Z,20.5
2023-04-09T16:59:08.500Z,19.9
2023-04-09T17:01:08.550Z,19.8
2023-04-09T17:03:09.000Z,19.6
2023-04-09T17:05:08.519Z,19.4
2023-04-09T17:07:08.580Z,19.7
2023-04-09T17:09:08.444Z,19.4
2023-04-09T17:11:08.522Z,19.6
2023-04-09T17:13:08.425Z,19.5
2023-04-09T17:15:08.425Z,19.4
2023-04-09T17:17:08.629Z,19.3
2023-04-09T17:19:09.235Z,19.3
2023-04-09T17:21:08.484Z,19.5
2023-04-09T17:23:08.394Z,19.6
2023-04-09T17:25:08.443Z,19.8
2023-04-09T17:27:08.497Z,19.8
2023-04-09T17:29:08.707Z,20.0
2023-04-09T17:31:08.448Z,20.1
2023-04-09T17:33:08.586Z,19.8
2023-04-09T17:35:08.452Z,19.9
2023-04-09T17:37:08.397Z,20.3
2023-04-09T17:39:08.636Z,20.3
2023-04-09T17:41:08.374Z,20.5
2023-04-09T17:43:12.912Z,20.0
2023-04-09T17:45:08.518Z,20.4
2023-04-09T17:47:08.565Z,20.3
2023-04-09T17:49:08.431Z,19.8
2023-04-09T17:51:08.458Z,19.8
2023-04-09T17:53:08.478Z,19.7
2023-04-09T17:55:09.398Z,19.7
2023-04-09T17:57:08.519Z,19.6
2023-04-09T17:59:08.489Z,19.7
2023-04-09T18:01:08.515Z,19.9
2023-04-09T18:03:08.846Z,20.0
2023-04-09T18:05:08.526Z,20.0
2023-04-09T18:07:08.553Z,19.6
2023-04-09T18:09:08.472Z,19.5
2023-04-09T18:11:13.084Z,19.8
2023-04-09T18:13:12.045Z,20.3
2023-04-09T18:15:08.454Z,20.3
2023-04-09T18:17:08.426Z,20.2
2023-04-09T18:19:08.529Z,20.3
2023-04-09T18:21:08.674Z,20.5
2023-04-09T18:23:08.678Z,20.3
2023-04-09T18:25:08.778Z,20.2
2023-04-09T18:27:08.507Z,20.3
2023-04-09T18:29:08.784Z,20.3
2023-04-09T18:31:08.512Z,20.3
2023-04-09T18:33:10.153Z,20.3
2023-04-09T18:35:08.516Z,20.1
2023-04-09T18:37:08.538Z,26.0
2023-04-09T18:39:08.918Z,21.0
2023-04-09T18:41:08.517Z,19.0
2023-04-09T18:43:08.483Z,20.0
2023-04-09T18:45:08.564Z,20.1
2023-04-09T18:47:08.443Z,19.3
2023-04-09T18:49:08.532Z,19.3
2023-04-09T18:51:12.687Z,19.3
2023-04-09T18:53:08.478Z,19.7
2023-04-09T18:55:08.743Z,19.6
2023-04-09T18:57:08.516Z,19.0
2023-04-09T18:59:08.505Z,19.4
2023-04-09T19:01:09.664Z,19.7
2023-04-09T19:03:08.701Z,19.5
2023-04-09T19:05:12.158Z,19.2
2023-04-09T19:07:08.516Z,19.3
2023-04-09T19:09:08.537Z,19.1
2023-04-09T19:11:08.473Z,19.1
2023-04-09T19:13:08.657Z,19.3
2023-04-09T19:15:09.589Z,19.3
2023-04-09T19:17:08.513Z,19.0
2023-04-09T19:19:08.546Z,19.2
2023-04-09T19:21:08.463Z,19.4
2023-04-09T19:23:08.522Z,19.5
2023-04-09T19:25:08.583Z,19.8
2023-04-09T19:27:08.533Z,19.7
2023-04-09T19:29:08.505Z,19.8
2023-04-09T19:31:08.576Z,19.9
2023-04-09T19:33:08.593Z,19.9
2023-04-09T19:35:08.777Z,19.8
2023-04-09T19:37:08.509Z,19.7
2023-04-09T19:39:11.338Z,19.9
2023-04-09T19:41:08.498Z,19.9
2023-04-09T19:43:08.562Z,19.7
2023-04-09T19:45:08.622Z,19.5
2023-04-09T19:47:08.664Z,19.7
2023-04-09T19:49:08.662Z,19.9
2023-04-09T19:51:08.524Z,20.1
2023-04-09T19:53:13.484Z,20.0
2023-04-09T19:55:08.504Z,20.0
2023-04-09T19:57:08.563Z,20.0
2023-04-09T19:59:08.548Z,19.9
2023-04-09T20:01:08.751Z,19.7
2023-04-09T20:03:08.785Z,20.0
2023-04-09T20:05:08.506Z,20.3
2023-04-09T20:07:08.505Z,20.5
2023-04-09T20:09:08.584Z,20.4
2023-04-09T20:11:08.523Z,20.4
2023-04-09T20:13:08.580Z,20.4
2023-04-09T20:15:09.848Z,20.4
2023-04-09T20:17:08.621Z,20.5
2023-04-09T20:19:08.477Z,20.6
2023-04-09T20:21:08.544Z,20.1
2023-04-09T20:23:08.521Z,20.0
2023-04-09T20:25:10.943Z,19.5
2023-04-09T20:27:13.517Z,19.6
2023-04-09T20:29:09.046Z,19.4
2023-04-09T20:31:08.503Z,19.3
2023-04-09T20:33:08.671Z,19.2
2023-04-09T20:35:08.480Z,19.3
2023-04-09T20:37:08.752Z,19.3
2023-04-09T20:40:12.390Z,19.3
2023-04-09T20:42:08.525Z,19.5
2023-04-09T20:44:08.538Z,19.6
2023-04-09T20:46:08.813Z,19.6
2023-04-09T20:48:11.273Z,19.6
2023-04-09T20:50:08.506Z,19.5
2023-04-09T20:52:09.462Z,19.4
2023-04-09T20:54:10.570Z,19.5
2023-04-09T20:57:21.778Z,19.9
2023-04-09T20:59:20.570Z,19.9
2023-04-09T21:01:20.660Z,20.3
2023-04-09T21:03:21.037Z,19.9
2023-04-09T21:05:23.398Z,19.8
2023-04-09T21:07:21.192Z,19.9
2023-04-09T21:09:20.550Z,20.0
2023-04-09T21:11:20.649Z,20.1
2023-04-09T21:13:20.680Z,19.8
2023-04-09T21:15:20.686Z,19.9
2023-04-09T21:17:20.629Z,19.9
2023-04-09T21:19:20.581Z,19.7
2023-04-09T21:21:20.650Z,20.2
2023-04-09T21:24:20.620Z,20.2
2023-04-09T21:26:20.649Z,20.0
2023-04-09T21:28:28.485Z,20.3
2023-04-09T21:29:23.552Z,20.3
2023-04-09T21:32:20.639Z,20.3
2023-04-09T21:34:20.656Z,20.5
2023-04-09T21:36:20.694Z,20.6
2023-04-09T21:37:26.692Z,20.8
2023-04-09T21:40:20.605Z,20.6
2023-04-09T21:42:20.653Z,20.5
2023-04-09T21:44:20.598Z,20.6
2023-04-09T21:46:20.637Z,20.6
2023-04-09T21:48:20.635Z,20.8
2023-04-09T21:50:20.921Z,20.8
2023-04-09T21:52:20.669Z,20.8
2023-04-09T21:54:20.617Z,20.8
2023-04-09T21:56:25.517Z,20.9
2023-04-09T21:58:20.611Z,20.8
2023-04-09T22:00:20.607Z,20.9
2023-04-09T22:02:20.904Z,20.9
2023-04-09T22:04:20.678Z,20.9
2023-04-09T22:06:21.111Z,20.9
2023-04-09T22:08:20.652Z,20.8
2023-04-09T22:10:20.706Z,21.0
2023-04-09T22:12:20.607Z,20.8
2023-04-09T22:14:20.790Z,20.9
2023-04-09T22:16:20.720Z,20.8
2023-04-09T22:18:20.635Z,20.8
2023-04-09T22:20:20.658Z,20.6
2023-04-09T22:22:20.616Z,20.7
2023-04-09T22:24:20.697Z,21.0
2023-04-09T22:26:20.641Z,21.0
2023-04-09T22:28:20.586Z,20.8
2023-04-09T22:30:20.666Z,20.9
2023-04-09T22:32:20.663Z,20.8
2023-04-09T22:34:21.750Z,20.9
2023-04-09T22:36:20.788Z,20.6
2023-04-09T22:38:20.614Z,20.4
2023-04-09T22:40:21.018Z,20.4
2023-04-09T22:42:20.640Z,20.3
2023-04-09T22:44:20.641Z,20.3
2023-04-09T22:46:20.691Z,20.5
2023-04-09T22:48:20.987Z,20.5
2023-04-09T22:50:20.678Z,20.5
2023-04-09T22:52:20.616Z,20.6
2023-04-09T22:54:20.745Z,20.5
2023-04-09T22:56:20.629Z,20.2
2023-04-09T22:58:20.708Z,20.1
2023-04-09T23:00:21.139Z,19.9
2023-04-09T23:02:20.782Z,19.8
2023-04-09T23:04:20.691Z,19.5
2023-04-09T23:06:21.001Z,19.3
2023-04-09T23:08:20.607Z,19.2
2023-04-09T23:10:20.674Z,19.3
2023-04-09T23:12:20.653Z,19.5
2023-04-09T23:14:20.639Z,19.6
2023-04-09T23:16:20.781Z,19.7
2023-04-09T23:18:20.642Z,19.8
2023-04-09T23:20:20.683Z,20.0
2023-04-09T23:22:20.649Z,20.0
2023-04-09T23:24:21.777Z,19.7
2023-04-09T23:26:20.652Z,19.9
2023-04-09T23:28:20.709Z,19.9
2023-04-09T23:30:20.726Z,20.1
2023-04-09T23:32:20.698Z,20.1
2023-04-09T23:34:20.656Z,20.0
2023-04-09T23:36:21.045Z,20.3
2023-04-09T23:38:20.628Z,20.2
2023-04-09T23:40:21.949Z,20.3
2023-04-09T23:42:20.643Z,20.6
2023-04-09T23:44:20.703Z,20.7
2023-04-09T23:46:20.690Z,20.5
2023-04-09T23:48:25.590Z,20.6
2023-04-09T23:50:20.806Z,20.4
2023-04-09T23:52:20.660Z,20.1
2023-04-09T23:54:20.632Z,20.1
2023-04-09T23:56:20.705Z,20.2
2023-04-09T23:58:20.699Z,20.3
